Aérodrome :
LOGIN :

S'inscrire | Disclaimer

   EN    FR    IT 

 










Légende :    VFR   VFR Marginal   IFR   IFR Intensif   IFR Très Intensif
Visi : 
Plafond : 
>= 8 km
>= 3000ft
5 à 8 km
1000 à 3000 ft
1500m à 5 km
500 à 1000 ft
800 à 1500m
200 à 500 ft
< 800m
< 200 ft
Symboles :   Orages  Brouillard  Fortes neiges  Fortes précipitations  Vent > 20 kt
SIGMETs :   Divers  Orages  Givrage  Turbulence  Onde Orograph.  Cendres Volcan.






- Altitude de l'aérodrome : 157 ft
- Code IATA : SFT


ESNS - Skellefteå

DERNIER METAR :
  • 041820Z AUTO 26010KT 9999 NCD M00/M14 Q1011

METARs EXPIRÉS :
  • 041750Z AUTO 27012KT 9999 NCD 00/M13 Q1011
  • 041720Z AUTO 27011KT 9999 NCD 01/M14 Q1010
  • 041650Z AUTO 29012KT 9999 NCD 01/M13 Q1010
  • 041620Z AUTO 28014KT 9999 NCD 01/M13 Q1009
  • 041550Z AUTO 29014KT 260V330 9999 NCD 02/M13 Q1009

Prévision TAF périmée.



MET'MAP, la Météo Aéronautique d'un coup d'oeil ! - Copyright ORBIFLY Décembre 2007 - Disclaimer

ORBIFLY MET'MAP TEAM :

Programmation & Développement : Alexandra Zaïnal
Sur une idée originale de : Baudouin d'Aumeries
Assistance à la programmation : Marc-Olivier Méhu
Soutien technique & logistique : Manuel Goepfert

Contact : metmap@orbifly.com




SOURCES & CREDITS :

   NOAA